Terminal Aerodrome Forecast
Issued by NWS Binghamton, NY

Home | Current Version | Previous Version | Text Only | Print | Product List | Glossary On
Versions: 1 2 3 4 5 6 7 8 9 10 11 12 13 14
196
FTUS41 KBGM 241120
TAFAVP
TAF
KAVP 241120Z 2412/2512 11005KT P6SM SKC
     FM242200 12005KT P6SM BKN080
     FM250600 08007KT P6SM OVC040
     FM251000 08009KT P6SM -RA OVC020=

USA.gov is the U.S. government's official web portal to all federal, state and local government web resources and services.